Terminal Aerodrome Forecast
Issued by NWS

Home | Current Version | Previous Version | Text Only | Print | Product List | Glossary On
Versions: 1 2 3 4 5 6 7 8 9 10 11 12 13 14 15 16 17 18 19 20 21 22 23 24 25 26 27 28 29 30 31 32 33 34 35 36 37
000
FTUS44 KOHX 290800 AAB
TAFCKV
TAF AMD
KCKV 290842Z 2909/3006 15004KT 6SM BR SCT035 BKN060
     FM291200 17006KT 4SM BR BKN015 OVC030
     FM291500 18007KT P6SM BKN025 BKN050
     FM291800 18010KT P6SM VCTS BKN035CB BKN250
     FM300200 17005KT P6SM SCT050 BKN080=

USA.gov is the U.S. government's official web portal to all federal, state and local government web resources and services.